createdAt,value
2018-06-27T14:44:18.122Z,123.75
2018-06-27T14:45:18.129Z,118.13
2018-06-27T14:47:11.324Z,123.75
2018-06-27T14:48:11.327Z,129.38
2018-06-27T14:50:04.467Z,106.88
2018-06-27T14:51:04.512Z,106.88
2018-06-27T14:52:58.082Z,95.63
2018-06-27T14:53:58.094Z,84.38
2018-06-27T14:55:51.278Z,90.00
2018-06-27T14:56:51.292Z,95.63
2018-06-27T14:58:56.178Z,84.38
2018-06-27T14:59:56.170Z,84.38
2018-06-27T15:02:01.753Z,78.75
2018-06-27T15:03:01.769Z,73.13
2018-06-27T15:04:55.253Z,78.75
2018-06-27T15:05:55.205Z,73.13
2018-06-27T15:07:51.512Z,78.75
2018-06-27T15:08:48.449Z,73.13
2018-06-27T15:10:53.291Z,78.75
2018-06-27T15:11:53.322Z,73.13
2018-06-27T15:13:46.510Z,90.00
2018-06-27T15:14:46.504Z,106.88
2018-06-27T15:16:39.730Z,118.13
2018-06-27T15:17:39.710Z,118.13
2018-06-27T15:19:32.883Z,129.38
2018-06-27T15:20:32.982Z,146.25
2018-06-27T15:22:26.096Z,140.63
2018-06-27T15:23:26.152Z,118.13
2018-06-27T15:25:19.273Z,90.00
2018-06-27T15:26:19.285Z,84.38
2018-06-27T15:28:12.609Z,84.38
2018-06-27T15:29:12.607Z,84.38
2018-06-27T15:31:05.769Z,123.75
2018-06-27T15:32:05.795Z,129.38
2018-06-27T15:34:01.400Z,129.38
2018-06-27T15:35:00.929Z,135.00
2018-06-27T15:37:11.408Z,118.13
2018-06-27T15:38:11.435Z,112.50
2018-06-27T15:40:04.634Z,106.88
2018-06-27T15:41:04.641Z,101.25
2018-06-27T15:42:57.818Z,95.63
2018-06-27T15:43:57.834Z,101.25
2018-06-27T15:45:51.332Z,78.75
2018-06-27T15:46:51.068Z,78.75
2018-06-27T15:48:44.234Z,78.75
2018-06-27T15:49:44.340Z,90.00
2018-06-27T15:51:37.530Z,112.50
2018-06-27T15:52:37.484Z,106.88
2018-06-27T15:54:30.682Z,106.88
2018-06-27T15:55:30.714Z,101.25
2018-06-27T15:57:23.924Z,101.25
2018-06-27T15:58:23.949Z,101.25
2018-06-27T16:00:17.134Z,118.13
2018-06-27T16:01:17.143Z,106.88
2018-06-27T16:03:10.335Z,106.88
2018-06-27T16:04:10.398Z,112.50
2018-06-27T16:06:03.635Z,95.63
2018-06-27T16:07:03.564Z,90.00
2018-06-27T16:08:56.703Z,90.00
2018-06-27T16:09:56.725Z,84.38
2018-06-27T16:11:49.959Z,73.13
2018-06-27T16:12:49.928Z,67.50
2018-06-27T16:14:43.109Z,50.63
2018-06-27T16:15:43.131Z,56.25
2018-06-27T16:17:36.351Z,39.38
2018-06-27T16:18:36.802Z,39.38
2018-06-27T16:20:29.672Z,33.75
2018-06-27T16:21:29.623Z,33.75
2018-06-27T16:23:22.794Z,33.75
2018-06-27T16:24:22.819Z,33.75
2018-06-27T16:26:16.028Z,39.38
2018-06-27T16:29:09.240Z,73.13
2018-06-27T16:30:09.221Z,78.75
2018-06-27T16:32:02.402Z,84.38
2018-06-27T16:33:02.417Z,78.75
2018-06-27T16:34:02.430Z,84.38
2018-06-27T16:35:02.474Z,95.63
2018-06-27T16:36:02.499Z,95.63
2018-06-27T16:37:02.524Z,101.25
2018-06-27T16:38:02.550Z,90.00
2018-06-27T16:39:02.583Z,78.75
2018-06-27T16:40:02.621Z,73.13
2018-06-27T16:41:02.648Z,45.00
2018-06-27T16:42:02.678Z,78.75
2018-06-27T16:43:02.695Z,73.13
2018-06-27T16:44:02.789Z,56.25
2018-06-27T16:45:02.779Z,56.25
2018-06-27T16:46:02.800Z,56.25
2018-06-27T16:47:02.836Z,50.63
2018-06-27T16:48:02.852Z,56.25
2018-06-27T16:49:03.868Z,61.88
2018-06-27T16:50:02.949Z,61.88
2018-06-27T16:51:03.079Z,56.25
2018-06-27T16:52:02.974Z,61.88
2018-06-27T16:53:03.008Z,61.88
2018-06-27T16:54:03.031Z,61.88
2018-06-27T16:55:03.061Z,61.88
2018-06-27T16:56:03.091Z,67.50
2018-06-27T16:57:03.177Z,61.88
2018-06-27T16:58:03.148Z,67.50
2018-06-27T16:59:03.181Z,56.25
2018-06-27T17:00:03.199Z,61.88
2018-06-27T17:01:03.240Z,73.13
2018-06-27T17:02:03.289Z,61.88
2018-06-27T17:03:03.289Z,61.88
2018-06-27T17:04:03.377Z,56.25
2018-06-27T17:05:03.350Z,61.88
2018-06-27T17:06:03.382Z,61.88
2018-06-27T17:07:03.486Z,56.25
2018-06-27T17:08:03.454Z,56.25
2018-06-27T17:09:03.477Z,56.25
2018-06-27T17:10:03.500Z,50.63
2018-06-27T17:11:03.537Z,50.63
2018-06-27T17:12:03.558Z,56.25
2018-06-27T17:13:04.639Z,50.63
2018-06-27T17:14:03.620Z,50.63
2018-06-27T17:15:03.645Z,50.63
2018-06-27T17:16:03.681Z,56.25
2018-06-27T17:17:03.724Z,50.63
2018-06-27T17:18:03.753Z,50.63
2018-06-27T17:19:03.853Z,50.63
2018-06-27T17:20:03.798Z,50.63
2018-06-27T17:21:03.835Z,45.00
2018-06-27T17:22:03.864Z,45.00
2018-06-27T17:23:04.065Z,39.38
2018-06-27T17:24:04.648Z,33.75
2018-06-27T17:25:03.952Z,45.00
2018-06-27T17:26:03.977Z,45.00
2018-06-27T17:27:04.008Z,39.38
2018-06-27T17:28:04.030Z,45.00
2018-06-27T17:29:04.121Z,39.38
2018-06-27T17:30:04.094Z,50.63
2018-06-27T17:31:04.117Z,56.25
2018-06-27T17:32:04.667Z,50.63
2018-06-27T17:33:05.145Z,45.00
2018-06-27T17:34:04.217Z,39.38
2018-06-27T17:35:04.317Z,39.38
2018-06-27T17:36:04.277Z,45.00
2018-06-27T17:37:04.294Z,39.38
2018-06-27T17:38:04.344Z,33.75
2018-06-27T17:39:04.368Z,33.75
2018-06-27T17:40:04.383Z,33.75
2018-06-27T17:41:04.413Z,33.75
2018-06-27T17:42:04.461Z,22.50
2018-06-27T17:43:04.489Z,22.50
2018-06-27T17:44:04.505Z,16.88
2018-06-27T17:45:04.541Z,16.88
2018-06-27T17:46:04.637Z,16.88
2018-06-27T17:47:04.590Z,16.88
2018-06-27T17:48:04.626Z,16.88
2018-06-27T17:49:04.652Z,16.88
2018-06-27T17:50:04.702Z,16.88
2018-06-27T17:51:04.718Z,16.88
2018-06-27T17:52:04.772Z,16.88
2018-06-27T17:53:04.767Z,16.88
2018-06-27T17:54:04.836Z,16.88
2018-06-27T17:55:04.842Z,16.88
2018-06-27T17:56:04.889Z,16.88
2018-06-27T17:57:04.905Z,16.88
2018-06-27T17:58:04.914Z,16.88
2018-06-27T17:59:04.966Z,16.88
2018-06-27T18:00:04.980Z,16.88
2018-06-27T18:01:05.008Z,16.88
2018-06-27T18:02:05.056Z,16.88
2018-06-27T18:03:05.069Z,16.88
2018-06-27T18:04:05.091Z,22.50
2018-06-27T18:05:05.128Z,22.50
2018-06-27T18:06:05.164Z,16.88
2018-06-27T18:07:05.179Z,16.88
2018-06-27T18:08:05.249Z,16.88
2018-06-27T18:09:05.262Z,22.50
2018-06-27T18:10:05.271Z,28.13
2018-06-27T18:11:05.307Z,28.13
2018-06-27T18:12:05.343Z,28.13
2018-06-27T18:13:05.359Z,22.50
2018-06-27T18:14:05.387Z,22.50
2018-06-27T18:15:05.422Z,22.50
2018-06-27T18:16:05.455Z,22.50
2018-06-27T18:17:05.486Z,22.50
2018-06-27T18:18:05.513Z,22.50
2018-06-27T18:19:05.539Z,22.50
2018-06-27T18:20:05.582Z,22.50
2018-06-27T18:21:05.600Z,22.50
2018-06-27T18:22:05.640Z,16.88
2018-06-27T18:23:05.694Z,22.50
2018-06-27T18:24:05.809Z,22.50
2018-06-27T18:25:05.736Z,16.88
2018-06-27T18:26:05.785Z,16.88
2018-06-27T18:27:05.771Z,11.25
2018-06-27T18:28:05.819Z,11.25
2018-06-27T18:29:05.880Z,11.25
2018-06-27T18:30:05.866Z,11.25
2018-06-27T18:31:05.897Z,11.25
2018-06-27T18:32:05.935Z,11.25
2018-06-27T18:33:05.969Z,11.25
2018-06-27T18:35:06.108Z,11.25
2018-06-27T18:36:06.266Z,5.63
2018-06-27T18:37:06.657Z,11.25
2018-06-27T18:38:06.098Z,11.25
2018-06-27T18:39:06.171Z,11.25
2018-06-27T18:40:06.171Z,11.25
2018-06-27T18:41:06.216Z,11.25
2018-06-27T18:42:06.256Z,5.63
2018-06-27T18:43:06.248Z,5.63
2018-06-27T18:44:06.310Z,5.63
2018-06-27T18:45:06.303Z,5.63
2018-06-27T18:46:06.337Z,5.63
2018-06-27T18:47:06.361Z,5.63
2018-06-27T18:48:06.399Z,5.63
2018-06-27T18:49:06.438Z,5.63
2018-06-27T18:50:06.450Z,5.63
2018-06-27T18:51:06.486Z,5.63
2018-06-27T18:52:06.533Z,5.63
2018-06-27T18:53:06.590Z,5.63
2018-06-27T18:54:06.634Z,5.63
2018-06-27T18:55:06.629Z,5.63
2018-06-27T18:56:06.628Z,5.63
2018-06-27T18:57:06.676Z,5.63
2018-06-27T18:58:06.721Z,5.63
2018-06-27T18:59:06.838Z,5.63
2018-06-27T19:00:07.269Z,5.63
2018-06-27T19:01:06.830Z,5.63
2018-06-27T19:02:06.825Z,5.63
2018-06-27T19:03:06.883Z,5.63
2018-06-27T19:04:06.877Z,5.63
2018-06-27T19:05:06.914Z,5.63
2018-06-27T19:06:06.935Z,5.63
2018-06-27T19:07:06.980Z,5.63
2018-06-27T19:08:06.983Z,5.63
2018-06-27T19:09:07.032Z,5.63
2018-06-27T19:10:07.050Z,5.63
2018-06-27T19:11:07.089Z,5.63
2018-06-27T19:12:07.118Z,5.63
2018-06-27T19:13:07.155Z,0.00
2018-06-27T19:14:07.173Z,0.00
2018-06-27T19:15:07.189Z,0.00
2018-06-27T19:16:07.262Z,0.00
2018-06-27T19:17:07.250Z,0.00
2018-06-27T19:18:07.397Z,0.00
2018-06-27T19:19:07.391Z,0.00
2018-06-27T19:20:07.337Z,0.00
2018-06-27T19:21:07.354Z,0.00
2018-06-27T19:22:07.400Z,0.00
2018-06-27T19:23:07.434Z,0.00
2018-06-27T19:24:07.532Z,0.00
2018-06-27T19:25:07.496Z,0.00
2018-06-27T19:26:07.538Z,0.00
2018-06-27T19:27:07.546Z,0.00
2018-06-27T19:28:07.585Z,0.00
2018-06-27T19:29:07.626Z,0.00
2018-06-27T19:30:07.639Z,0.00
2018-06-27T19:31:07.693Z,0.00
2018-06-27T19:32:07.686Z,0.00
2018-06-27T19:33:07.757Z,0.00
2018-06-27T19:34:07.750Z,0.00
2018-06-27T19:35:07.876Z,0.00
2018-06-27T19:36:07.835Z,0.00
2018-06-27T19:37:07.886Z,0.00
2018-06-27T19:38:07.888Z,0.00
2018-06-27T19:39:07.933Z,0.00
2018-06-27T19:40:07.950Z,0.00
2018-06-27T19:41:08.107Z,0.00
2018-06-27T19:42:07.984Z,0.00
2018-06-27T19:43:08.017Z,0.00
2018-06-27T19:44:08.039Z,0.00
2018-06-27T19:45:08.087Z,0.00
2018-06-27T19:46:08.121Z,0.00
2018-06-27T19:47:08.132Z,0.00
2018-06-27T19:48:08.181Z,0.00
2018-06-27T19:49:08.197Z,0.00
2018-06-27T19:50:08.202Z,0.00
2018-06-27T19:51:08.239Z,0.00
2018-06-27T19:52:08.280Z,0.00
2018-06-27T19:53:08.289Z,0.00
2018-06-27T19:54:08.330Z,0.00
2018-06-27T19:55:08.474Z,0.00
2018-06-27T19:56:08.385Z,0.00
2018-06-27T19:57:08.420Z,0.00
2018-06-27T19:58:08.436Z,0.00
2018-06-27T19:59:08.469Z,0.00
2018-06-27T20:00:08.510Z,0.00
2018-06-27T20:01:08.549Z,0.00
2018-06-27T20:02:08.628Z,0.00
2018-06-27T20:03:08.608Z,0.00
2018-06-27T20:04:08.629Z,0.00
2018-06-27T20:05:08.637Z,0.00
2018-06-27T20:06:08.677Z,0.00
2018-06-27T20:07:08.744Z,0.00
2018-06-27T20:08:08.753Z,0.00
2018-06-27T20:09:08.759Z,0.00
2018-06-27T20:10:08.839Z,0.00
2018-06-27T20:11:08.827Z,0.00
2018-06-27T20:12:08.846Z,0.00
2018-06-27T20:13:08.961Z,0.00
2018-06-27T20:14:08.952Z,0.00
2018-06-27T20:15:09.013Z,0.00
2018-06-27T20:16:09.035Z,0.00
2018-06-27T20:17:08.997Z,0.00
2018-06-27T20:18:09.028Z,0.00
2018-06-27T20:19:09.117Z,0.00
2018-06-27T20:20:09.103Z,0.00
2018-06-27T20:21:09.112Z,0.00
2018-06-27T20:22:09.225Z,0.00
2018-06-27T20:23:09.190Z,0.00
2018-06-27T20:24:09.201Z,0.00
2018-06-27T20:25:09.247Z,0.00
2018-06-27T20:26:09.268Z,0.00
2018-06-27T20:27:09.310Z,0.00
2018-06-27T20:28:09.329Z,0.00
2018-06-27T20:29:09.372Z,0.00
2018-06-27T20:30:09.389Z,0.00
2018-06-27T20:31:09.450Z,0.00
2018-06-27T20:32:09.451Z,0.00
2018-06-27T20:33:09.472Z,0.00
2018-06-27T20:34:09.499Z,0.00
2018-06-27T20:35:09.522Z,0.00
2018-06-27T20:36:09.557Z,0.00
2018-06-27T20:37:09.633Z,0.00
2018-06-27T20:38:09.624Z,0.00
2018-06-27T20:39:09.736Z,0.00
2018-06-27T20:40:09.855Z,0.00
2018-06-27T20:41:10.120Z,0.00
2018-06-27T20:42:09.732Z,0.00
2018-06-27T20:43:09.771Z,0.00
2018-06-27T20:44:09.784Z,0.00
2018-06-27T20:45:09.807Z,0.00
2018-06-27T20:46:09.959Z,0.00
2018-06-27T20:47:09.882Z,0.00
2018-06-27T20:48:09.911Z,0.00
2018-06-27T20:49:10.000Z,0.00
2018-06-27T20:50:09.963Z,0.00
2018-06-27T20:51:09.989Z,0.00
2018-06-27T20:52:10.009Z,0.00
2018-06-27T20:53:10.055Z,0.00
2018-06-27T20:54:10.088Z,0.00
2018-06-27T20:55:10.129Z,0.00
2018-06-27T20:56:10.125Z,0.00
2018-06-27T20:57:10.224Z,0.00
2018-06-27T20:58:10.187Z,0.00
2018-06-27T20:59:10.235Z,0.00
2018-06-27T21:00:10.247Z,0.00
2018-06-27T21:01:10.347Z,0.00
2018-06-27T21:02:10.321Z,0.00
2018-06-27T21:03:10.333Z,0.00
2018-06-27T21:04:10.366Z,0.00
2018-06-27T21:05:10.394Z,0.00
2018-06-27T21:06:10.478Z,0.00
2018-06-27T21:07:10.468Z,0.00
2018-06-27T21:08:10.494Z,0.00
2018-06-27T21:09:10.508Z,0.00
2018-06-27T21:10:10.585Z,0.00
2018-06-27T21:11:10.569Z,0.00
2018-06-27T21:12:10.597Z,0.00
2018-06-27T21:13:10.636Z,0.00
2018-06-27T21:14:10.659Z,0.00
2018-06-27T21:15:10.685Z,0.00
2018-06-27T21:16:10.733Z,0.00
2018-06-27T21:17:10.751Z,0.00
2018-06-27T21:18:10.794Z,0.00
2018-06-27T21:19:10.816Z,0.00
2018-06-27T21:20:10.840Z,0.00
2018-06-27T21:21:10.860Z,0.00
2018-06-27T21:22:10.906Z,0.00
2018-06-27T21:23:10.925Z,0.00
2018-06-27T21:24:10.952Z,0.00
2018-06-27T21:25:10.972Z,0.00
2018-06-27T21:26:11.009Z,0.00
2018-06-27T21:27:11.035Z,0.00
2018-06-27T21:28:11.063Z,0.00
2018-06-27T21:29:11.094Z,0.00
2018-06-27T21:31:11.193Z,0.00
2018-06-27T21:32:11.236Z,0.00
2018-06-27T21:33:11.254Z,0.00
2018-06-27T21:34:11.283Z,0.00
2018-06-27T21:35:11.314Z,0.00
2018-06-27T21:36:11.346Z,0.00
2018-06-27T21:37:32.389Z,0.00
2018-06-27T21:38:11.395Z,0.00
2018-06-27T21:39:11.440Z,0.00
2018-06-27T21:40:11.453Z,0.00
2018-06-27T21:41:11.484Z,0.00
2018-06-27T21:42:11.529Z,0.00
2018-06-27T21:43:32.568Z,0.00
2018-06-27T21:44:11.574Z,0.00
2018-06-27T21:45:11.602Z,0.00
2018-06-27T21:46:11.758Z,0.00
2018-06-27T21:47:12.314Z,0.00
2018-06-27T21:48:11.705Z,0.00
2018-06-27T21:49:32.735Z,0.00
2018-06-27T21:50:11.738Z,0.00
2018-06-27T21:51:11.796Z,0.00
2018-06-27T21:52:11.799Z,0.00
2018-06-27T21:53:11.845Z,0.00
2018-06-27T21:54:11.871Z,0.00
2018-06-27T21:55:32.907Z,0.00
2018-06-27T21:56:11.924Z,0.00
2018-06-27T21:57:12.108Z,0.00
2018-06-27T21:58:11.992Z,0.00
2018-06-27T21:59:12.041Z,0.00
2018-06-27T22:00:12.056Z,0.00
2018-06-27T22:01:33.088Z,0.00
2018-06-27T22:02:12.094Z,0.00
2018-06-27T22:03:12.139Z,0.00
2018-06-27T22:04:12.155Z,0.00
2018-06-27T22:05:12.187Z,0.00
2018-06-27T22:06:12.260Z,0.00
2018-06-27T22:07:33.262Z,0.00
2018-06-27T22:08:12.281Z,0.00
2018-06-27T22:09:12.365Z,0.00
2018-06-27T22:10:12.329Z,0.00
2018-06-27T22:11:12.354Z,0.00
2018-06-27T22:12:12.396Z,0.00
2018-06-27T22:13:33.442Z,0.00
2018-06-27T22:14:12.446Z,0.00
2018-06-27T22:15:12.526Z,0.00
2018-06-27T22:16:12.511Z,0.00
2018-06-27T22:17:12.549Z,0.00
2018-06-27T22:18:12.558Z,0.00
2018-06-27T22:19:33.634Z,0.00
2018-06-27T22:20:12.630Z,0.00
2018-06-27T22:21:12.660Z,0.00
2018-06-27T22:22:12.674Z,0.00
2018-06-27T22:23:12.709Z,0.00
2018-06-27T22:24:12.747Z,0.00
2018-06-27T22:25:33.809Z,0.00
2018-06-27T22:26:12.807Z,0.00
2018-06-27T22:27:12.821Z,0.00
2018-06-27T22:28:12.848Z,0.00
2018-06-27T22:29:12.897Z,0.00
2018-06-27T22:30:12.908Z,0.00
2018-06-27T22:31:33.961Z,0.00
2018-06-27T22:32:12.962Z,0.00
2018-06-27T22:33:13.004Z,0.00
2018-06-27T22:34:13.035Z,0.00
2018-06-27T22:35:13.042Z,0.00
2018-06-27T22:36:13.088Z,0.00
2018-06-27T22:37:34.130Z,0.00
2018-06-27T22:38:13.148Z,0.00
2018-06-27T22:39:13.175Z,0.00
2018-06-27T22:40:13.200Z,0.00
2018-06-27T22:41:13.231Z,0.00
2018-06-27T22:42:13.255Z,0.00
2018-06-27T22:43:34.299Z,0.00
2018-06-27T22:44:13.327Z,0.00
2018-06-27T22:45:13.342Z,0.00
2018-06-27T22:46:13.369Z,0.00
2018-06-27T22:47:13.393Z,0.00
2018-06-27T22:48:13.422Z,0.00
2018-06-27T22:49:34.497Z,0.00
2018-06-27T22:50:13.493Z,0.00
2018-06-27T22:51:13.540Z,0.00
2018-06-27T22:52:13.546Z,0.00
2018-06-27T22:53:13.580Z,0.00
2018-06-27T22:54:13.606Z,0.00
2018-06-27T22:55:34.649Z,0.00
2018-06-27T22:56:13.653Z,0.00
2018-06-27T22:57:13.699Z,0.00
2018-06-27T22:58:13.737Z,0.00
2018-06-27T22:59:13.746Z,0.00
2018-06-27T23:00:13.775Z,0.00
2018-06-27T23:01:34.824Z,0.00
2018-06-27T23:02:13.835Z,0.00
2018-06-27T23:03:13.861Z,0.00
2018-06-27T23:04:13.922Z,0.00
2018-06-27T23:05:13.922Z,0.00
2018-06-27T23:06:13.953Z,0.00
2018-06-27T23:07:35.003Z,0.00
2018-06-27T23:08:14.129Z,0.00
2018-06-27T23:09:14.033Z,0.00
2018-06-27T23:10:14.100Z,0.00
2018-06-27T23:11:14.102Z,0.00
2018-06-27T23:12:14.127Z,0.00
2018-06-27T23:13:35.165Z,0.00
2018-06-27T23:14:14.177Z,0.00
2018-06-27T23:15:14.199Z,0.00
2018-06-27T23:16:14.237Z,0.00
2018-06-27T23:17:14.279Z,0.00
2018-06-27T23:18:14.306Z,0.00
2018-06-27T23:19:35.336Z,0.00
2018-06-27T23:20:14.350Z,0.00
2018-06-27T23:21:14.386Z,0.00
2018-06-27T23:22:14.422Z,0.00
2018-06-27T23:23:14.427Z,0.00
2018-06-27T23:24:14.492Z,0.00
2018-06-27T23:25:35.525Z,0.00
2018-06-27T23:26:14.528Z,0.00
2018-06-27T23:27:14.557Z,0.00
2018-06-27T23:28:14.591Z,0.00
2018-06-27T23:29:14.630Z,0.00
2018-06-27T23:30:14.639Z,0.00
2018-06-27T23:31:35.701Z,0.00
2018-06-27T23:32:14.692Z,0.00
2018-06-27T23:33:14.728Z,0.00
2018-06-27T23:34:14.771Z,0.00
2018-06-27T23:35:14.794Z,0.00
2018-06-27T23:36:14.806Z,0.00
2018-06-27T23:37:35.855Z,0.00
2018-06-27T23:38:14.886Z,0.00
2018-06-27T23:39:14.897Z,0.00
2018-06-27T23:40:14.925Z,0.00
2018-06-27T23:41:14.968Z,0.00
2018-06-27T23:42:14.993Z,0.00
2018-06-27T23:43:36.031Z,0.00
2018-06-27T23:44:15.045Z,0.00
2018-06-27T23:45:15.079Z,0.00
2018-06-27T23:46:15.103Z,0.00
2018-06-27T23:47:15.133Z,0.00
2018-06-27T23:48:15.155Z,0.00
2018-06-27T23:49:36.278Z,0.00
2018-06-27T23:50:15.224Z,0.00
2018-06-27T23:51:15.248Z,0.00
2018-06-27T23:52:15.274Z,0.00
2018-06-27T23:53:15.318Z,0.00
2018-06-27T23:54:15.332Z,0.00
2018-06-27T23:55:36.387Z,0.00
2018-06-27T23:56:15.397Z,0.00
2018-06-27T23:57:15.430Z,0.00
2018-06-27T23:58:15.447Z,0.00
2018-06-27T23:59:15.484Z,0.00
